METAR Data
IDs: Format: Raw Decoded Include TAF

Data at: 0239 UTC 19 Oct 2021

KTXK 190153Z 12005KT 10SM CLR 18/07 A3009 RMK AO2 SLP188 T01780072
KTXK 190053Z 12004KT 10SM CLR 18/07 A3008 RMK AO2 SLP184 T01830072
KTXK 182353Z 14004KT 10SM CLR 20/07 A3008 RMK AO2 SLP182 T02000067 10250 20200 55005
KTXK 182253Z 13004KT 10SM CLR 23/05 A3007 RMK AO2 SLP180 T02330050
KTXK 182153Z 17007KT 10SM CLR 24/04 A3008 RMK AO2 SLP184 T02390039
KTXK 182053Z 14009KT 10SM CLR 24/04 A3009 RMK AO2 SLP187 T02440044 56031
KTXK 181953Z 15006KT 7SM CLR 24/04 A3011 RMK AO2 SLP191 T02440039
KTXK 181853Z 17010KT 10SM CLR 24/04 A3014 RMK AO2 SLP204 T02390039
KTXK 181753Z 15006KT 9SM CLR 23/05 A3018 RMK AO2 SLP218 T02280050 10233 20094 58015
KTXK 181653Z 17006KT 10SM CLR 22/05 A3021 RMK AO2 SLP226 T02220050
KTXK 181553Z VRB03KT 10SM CLR 20/06 A3023 RMK AO2 SLP233 T02000056
KTXK 181453Z VRB04KT 10SM CLR 18/08 A3023 RMK AO2 SLP234 T01780083 53012
KTXK 181353Z 08003KT 10SM CLR 13/09 A3022 RMK AO2 SLP229 T01330089
KTXK 181253Z 06003KT 10SM CLR 11/08 A3019 RMK AO2 SLP222 T01110083
KTXK 181153Z 00000KT 10SM CLR 11/08 A3019 RMK AO2 SLP222 T01060083 10139 20094 51005
KTXK 181053Z 00000KT 10SM CLR 11/06 A3019 RMK AO2 SLP221 T01060061
KTXK 180953Z AUTO 00000KT 10SM CLR 12/07 A3018 RMK AO2 SLP218 T01170067
KTXK 180853Z AUTO 00000KT 10SM CLR 12/07 A3018 RMK AO2 SLP216 T01170067 56005
KTXK 180753Z AUTO 00000KT 10SM CLR 13/07 A3018 RMK AO2 SLP215 T01280067
KTXK 180653Z AUTO 00000KT 10SM CLR 13/07 A3019 RMK AO2 SLP219 T01330067
KTXK 180553Z AUTO 24003KT 10SM CLR 14/06 A3019 RMK AO2 SLP222 T01390061 10200 20139 402500083 58007
KTXK 180453Z AUTO 16003KT 10SM CLR 16/06 A3020 RMK AO2 SLP225 T01560056
KTXK 180353Z AUTO 15004KT 10SM CLR 17/05 A3021 RMK AO2 SLP228 T01670050
KTXK 180253Z AUTO 14005KT 10SM CLR 17/05 A3022 RMK AO2 SLP230 T01670050 52003
KTXK 180153Z 00000KT 10SM CLR 17/06 A3022 RMK AO2 SLP230 T01670056
KTXK 180053Z 17003KT 10SM CLR 18/05 A3021 RMK AO2 SLP228 T01830050
KTXK 172353Z 00000KT 10SM CLR 20/06 A3021 RMK AO2 SLP227 T02000056 10250 20200 56004
KTXK 172253Z 01003KT 10SM CLR 22/05 A3021 RMK AO2 SLP227 T02220050
KTXK 172153Z VRB03KT 10SM CLR 24/02 A3021 RMK AO2 SLP228 T02390022
KTXK 172053Z VRB04KT 10SM CLR 24/02 A3022 RMK AO2 SLP230 T02440022 56031
KTXK 171953Z 33004KT 10SM CLR 24/02 A3024 RMK AO2 SLP237 T02440022
KTXK 171853Z VRB04KT 10SM CLR 24/02 A3027 RMK AO2 SLP248 T02390017
KTXK 171753Z VRB06KT 10SM CLR 23/02 A3031 RMK AO2 SLP262 T02280017 10233 20083 58009
KTXK 171653Z 00000KT 10SM CLR 21/02 A3034 RMK AO2 SLP271 T02110022
KTXK 171553Z 08004KT 10SM CLR 20/03 A3034 RMK AO2 SLP272 T02000033
KTXK 171453Z 06004KT 10SM CLR 17/06 A3034 RMK AO2 SLP271 T01670056 53011